sensor_id;sensor_type;location;lat;lon;timestamp;P1;durP1;ratioP1;P2;durP2;ratioP2
10957;SDS011;5531;42.570;23.676;2022-10-16T00:01:49;5.47;;;3.80;;
10957;SDS011;5531;42.570;23.676;2022-10-16T00:04:21;4.13;;;3.60;;
10957;SDS011;5531;42.570;23.676;2022-10-16T00:06:50;3.78;;;3.40;;
10957;SDS011;5531;42.570;23.676;2022-10-16T00:09:19;4.88;;;3.58;;
10957;SDS011;5531;42.570;23.676;2022-10-16T00:11:48;5.28;;;3.97;;
10957;SDS011;5531;42.570;23.676;2022-10-16T00:14:17;5.47;;;4.05;;
10957;SDS011;5531;42.570;23.676;2022-10-16T00:16:46;5.88;;;4.30;;
10957;SDS011;5531;42.570;23.676;2022-10-16T00:19:15;5.25;;;3.90;;
10957;SDS011;5531;42.570;23.676;2022-10-16T00:21:47;5.20;;;3.70;;
10957;SDS011;5531;42.570;23.676;2022-10-16T00:24:16;4.15;;;3.75;;
10957;SDS011;5531;42.570;23.676;2022-10-16T00:26:45;5.00;;;3.72;;
10957;SDS011;5531;42.570;23.676;2022-10-16T00:29:18;4.97;;;3.83;;
10957;SDS011;5531;42.570;23.676;2022-10-16T00:31:47;5.95;;;4.18;;
10957;SDS011;5531;42.570;23.676;2022-10-16T00:34:16;4.85;;;3.50;;
10957;SDS011;5531;42.570;23.676;2022-10-16T00:36:47;3.85;;;3.50;;
10957;SDS011;5531;42.570;23.676;2022-10-16T00:39:17;5.43;;;4.13;;
10957;SDS011;5531;42.570;23.676;2022-10-16T00:41:46;7.28;;;3.70;;
10957;SDS011;5531;42.570;23.676;2022-10-16T00:47:19;4.95;;;4.13;;
10957;SDS011;5531;42.570;23.676;2022-10-16T00:49:51;6.05;;;4.22;;
10957;SDS011;5531;42.570;23.676;2022-10-16T00:52:27;5.38;;;3.90;;
10957;SDS011;5531;42.570;23.676;2022-10-16T00:54:56;5.97;;;3.95;;
10957;SDS011;5531;42.570;23.676;2022-10-16T00:57:27;6.22;;;4.28;;
10957;SDS011;5531;42.570;23.676;2022-10-16T00:59:56;4.45;;;3.83;;
10957;SDS011;5531;42.570;23.676;2022-10-16T01:02:26;5.13;;;4.03;;
10957;SDS011;5531;42.570;23.676;2022-10-16T01:04:55;5.57;;;4.18;;
10957;SDS011;5531;42.570;23.676;2022-10-16T01:07:30;4.15;;;3.72;;
10957;SDS011;5531;42.570;23.676;2022-10-16T01:10:13;4.70;;;3.85;;
10957;SDS011;5531;42.570;23.676;2022-10-16T01:12:54;4.80;;;4.22;;
10957;SDS011;5531;42.570;23.676;2022-10-16T01:15:29;3.63;;;3.17;;
10957;SDS011;5531;42.570;23.676;2022-10-16T01:18:03;4.70;;;3.38;;
10957;SDS011;5531;42.570;23.676;2022-10-16T01:20:37;4.15;;;3.72;;
10957;SDS011;5531;42.570;23.676;2022-10-16T01:23:19;5.35;;;3.60;;
10957;SDS011;5531;42.570;23.676;2022-10-16T01:25:59;4.30;;;3.78;;
10957;SDS011;5531;42.570;23.676;2022-10-16T01:28:44;4.63;;;3.78;;
10957;SDS011;5531;42.570;23.676;2022-10-16T01:31:19;5.18;;;3.65;;
10957;SDS011;5531;42.570;23.676;2022-10-16T01:33:54;4.07;;;3.65;;
10957;SDS011;5531;42.570;23.676;2022-10-16T01:36:28;3.95;;;3.28;;
10957;SDS011;5531;42.570;23.676;2022-10-16T01:39:04;4.55;;;3.60;;
10957;SDS011;5531;42.570;23.676;2022-10-16T01:41:38;4.13;;;3.65;;
10957;SDS011;5531;42.570;23.676;2022-10-16T01:44:15;4.15;;;3.42;;
10957;SDS011;5531;42.570;23.676;2022-10-16T01:46:49;4.15;;;3.40;;
10957;SDS011;5531;42.570;23.676;2022-10-16T01:49:21;7.03;;;3.70;;
10957;SDS011;5531;42.570;23.676;2022-10-16T01:51:54;4.07;;;3.67;;
10957;SDS011;5531;42.570;23.676;2022-10-16T01:54:27;4.00;;;3.22;;
10957;SDS011;5531;42.570;23.676;2022-10-16T01:56:58;5.22;;;3.50;;
10957;SDS011;5531;42.570;23.676;2022-10-16T01:59:32;4.25;;;3.28;;
10957;SDS011;5531;42.570;23.676;2022-10-16T02:02:07;4.90;;;3.97;;
10957;SDS011;5531;42.570;23.676;2022-10-16T02:04:39;4.15;;;3.40;;
10957;SDS011;5531;42.570;23.676;2022-10-16T02:07:11;4.38;;;3.53;;
10957;SDS011;5531;42.570;23.676;2022-10-16T02:09:40;5.32;;;3.58;;
10957;SDS011;5531;42.570;23.676;2022-10-16T02:12:12;5.95;;;3.50;;
10957;SDS011;5531;42.570;23.676;2022-10-16T02:14:47;4.82;;;3.72;;
10957;SDS011;5531;42.570;23.676;2022-10-16T02:17:17;5.22;;;3.60;;
10957;SDS011;5531;42.570;23.676;2022-10-16T02:19:47;5.03;;;3.83;;
10957;SDS011;5531;42.570;23.676;2022-10-16T02:22:22;4.78;;;4.38;;
10957;SDS011;5531;42.570;23.676;2022-10-16T02:24:56;4.57;;;3.83;;
10957;SDS011;5531;42.570;23.676;2022-10-16T02:27:28;4.63;;;4.00;;
10957;SDS011;5531;42.570;23.676;2022-10-16T02:30:07;6.63;;;4.18;;
10957;SDS011;5531;42.570;23.676;2022-10-16T02:32:41;5.18;;;4.50;;
10957;SDS011;5531;42.570;23.676;2022-10-16T02:35:13;4.82;;;4.05;;
10957;SDS011;5531;42.570;23.676;2022-10-16T02:37:45;6.22;;;4.20;;
10957;SDS011;5531;42.570;23.676;2022-10-16T02:40:15;4.10;;;3.70;;
10957;SDS011;5531;42.570;23.676;2022-10-16T02:42:49;7.32;;;4.35;;
10957;SDS011;5531;42.570;23.676;2022-10-16T02:45:22;5.70;;;4.20;;
10957;SDS011;5531;42.570;23.676;2022-10-16T02:47:54;5.75;;;3.92;;
10957;SDS011;5531;42.570;23.676;2022-10-16T02:50:23;4.25;;;3.53;;
10957;SDS011;5531;42.570;23.676;2022-10-16T02:52:52;5.82;;;4.07;;
10957;SDS011;5531;42.570;23.676;2022-10-16T02:55:21;5.03;;;3.78;;
10957;SDS011;5531;42.570;23.676;2022-10-16T02:57:50;4.68;;;3.80;;
10957;SDS011;5531;42.570;23.676;2022-10-16T03:00:22;6.35;;;4.60;;
10957;SDS011;5531;42.570;23.676;2022-10-16T03:02:51;4.22;;;3.80;;
10957;SDS011;5531;42.570;23.676;2022-10-16T03:05:20;5.63;;;4.32;;
10957;SDS011;5531;42.570;23.676;2022-10-16T03:07:49;4.68;;;4.13;;
10957;SDS011;5531;42.570;23.676;2022-10-16T03:10:18;4.78;;;4.20;;
10957;SDS011;5531;42.570;23.676;2022-10-16T03:12:47;5.13;;;4.30;;
10957;SDS011;5531;42.570;23.676;2022-10-16T03:15:17;4.95;;;4.28;;
10957;SDS011;5531;42.570;23.676;2022-10-16T03:17:48;6.35;;;4.80;;
10957;SDS011;5531;42.570;23.676;2022-10-16T03:20:17;5.35;;;4.05;;
10957;SDS011;5531;42.570;23.676;2022-10-16T03:22:46;5.35;;;4.20;;
10957;SDS011;5531;42.570;23.676;2022-10-16T03:25:15;5.75;;;4.40;;
10957;SDS011;5531;42.570;23.676;2022-10-16T03:27:45;4.53;;;3.88;;
10957;SDS011;5531;42.570;23.676;2022-10-16T03:30:14;5.53;;;4.28;;
10957;SDS011;5531;42.570;23.676;2022-10-16T03:32:43;4.63;;;4.00;;
10957;SDS011;5531;42.570;23.676;2022-10-16T03:35:15;5.70;;;4.07;;
10957;SDS011;5531;42.570;23.676;2022-10-16T03:37:44;5.53;;;4.38;;
10957;SDS011;5531;42.570;23.676;2022-10-16T03:40:14;4.70;;;4.13;;
10957;SDS011;5531;42.570;23.676;2022-10-16T03:42:43;5.00;;;4.20;;
10957;SDS011;5531;42.570;23.676;2022-10-16T03:45:13;4.82;;;4.15;;
10957;SDS011;5531;42.570;23.676;2022-10-16T03:47:42;5.30;;;4.60;;
10957;SDS011;5531;42.570;23.676;2022-10-16T03:50:11;5.53;;;4.22;;
10957;SDS011;5531;42.570;23.676;2022-10-16T03:52:43;5.75;;;4.40;;
10957;SDS011;5531;42.570;23.676;2022-10-16T03:55:12;5.38;;;4.53;;
10957;SDS011;5531;42.570;23.676;2022-10-16T03:57:41;5.78;;;4.70;;
10957;SDS011;5531;42.570;23.676;2022-10-16T04:00:11;5.15;;;4.57;;
10957;SDS011;5531;42.570;23.676;2022-10-16T04:02:41;6.28;;;4.72;;
10957;SDS011;5531;42.570;23.676;2022-10-16T04:05:10;6.68;;;4.97;;
10957;SDS011;5531;42.570;23.676;2022-10-16T04:07:39;5.75;;;4.88;;
10957;SDS011;5531;42.570;23.676;2022-10-16T04:10:10;6.57;;;4.88;;
10957;SDS011;5531;42.570;23.676;2022-10-16T04:12:39;6.90;;;5.13;;
10957;SDS011;5531;42.570;23.676;2022-10-16T04:15:09;7.47;;;4.70;;
10957;SDS011;5531;42.570;23.676;2022-10-16T04:17:38;6.45;;;4.95;;
10957;SDS011;5531;42.570;23.676;2022-10-16T04:20:07;6.05;;;4.88;;
10957;SDS011;5531;42.570;23.676;2022-10-16T04:22:37;7.05;;;5.22;;
10957;SDS011;5531;42.570;23.676;2022-10-16T04:25:06;7.00;;;5.35;;
10957;SDS011;5531;42.570;23.676;2022-10-16T04:27:39;6.22;;;5.03;;
10957;SDS011;5531;42.570;23.676;2022-10-16T04:30:08;5.65;;;5.03;;
10957;SDS011;5531;42.570;23.676;2022-10-16T04:32:38;5.88;;;4.93;;
10957;SDS011;5531;42.570;23.676;2022-10-16T04:35:08;6.35;;;5.15;;
10957;SDS011;5531;42.570;23.676;2022-10-16T04:37:37;6.75;;;5.43;;
10957;SDS011;5531;42.570;23.676;2022-10-16T04:40:06;8.02;;;4.90;;
10957;SDS011;5531;42.570;23.676;2022-10-16T04:42:39;6.03;;;5.28;;
10957;SDS011;5531;42.570;23.676;2022-10-16T04:45:08;6.40;;;5.38;;
10957;SDS011;5531;42.570;23.676;2022-10-16T04:47:38;6.93;;;5.60;;
10957;SDS011;5531;42.570;23.676;2022-10-16T04:50:08;6.30;;;4.95;;
10957;SDS011;5531;42.570;23.676;2022-10-16T04:52:37;6.32;;;5.00;;
10957;SDS011;5531;42.570;23.676;2022-10-16T04:55:07;6.18;;;4.72;;
10957;SDS011;5531;42.570;23.676;2022-10-16T04:57:39;7.38;;;5.03;;
10957;SDS011;5531;42.570;23.676;2022-10-16T05:00:09;7.68;;;5.25;;
10957;SDS011;5531;42.570;23.676;2022-10-16T05:02:39;6.30;;;5.70;;
10957;SDS011;5531;42.570;23.676;2022-10-16T05:05:08;7.18;;;5.70;;
10957;SDS011;5531;42.570;23.676;2022-10-16T05:07:37;8.50;;;6.55;;
10957;SDS011;5531;42.570;23.676;2022-10-16T05:10:06;8.75;;;6.00;;
10957;SDS011;5531;42.570;23.676;2022-10-16T05:12:35;6.68;;;5.45;;
10957;SDS011;5531;42.570;23.676;2022-10-16T05:15:08;5.75;;;5.15;;
10957;SDS011;5531;42.570;23.676;2022-10-16T05:17:38;7.90;;;5.10;;
10957;SDS011;5531;42.570;23.676;2022-10-16T05:20:07;6.03;;;4.72;;
10957;SDS011;5531;42.570;23.676;2022-10-16T05:22:36;7.38;;;4.90;;
10957;SDS011;5531;42.570;23.676;2022-10-16T05:25:05;6.22;;;4.88;;
10957;SDS011;5531;42.570;23.676;2022-10-16T05:27:35;6.82;;;4.97;;
10957;SDS011;5531;42.570;23.676;2022-10-16T05:30:07;7.22;;;5.15;;
10957;SDS011;5531;42.570;23.676;2022-10-16T05:32:37;6.13;;;4.78;;
10957;SDS011;5531;42.570;23.676;2022-10-16T05:35:06;5.95;;;4.95;;
10957;SDS011;5531;42.570;23.676;2022-10-16T05:37:36;5.40;;;4.90;;
10957;SDS011;5531;42.570;23.676;2022-10-16T05:40:05;7.30;;;5.38;;
10957;SDS011;5531;42.570;23.676;2022-10-16T05:42:36;6.47;;;5.32;;
10957;SDS011;5531;42.570;23.676;2022-10-16T05:45:09;6.95;;;5.28;;
10957;SDS011;5531;42.570;23.676;2022-10-16T05:47:39;5.47;;;4.97;;
10957;SDS011;5531;42.570;23.676;2022-10-16T05:50:08;6.05;;;5.20;;
10957;SDS011;5531;42.570;23.676;2022-10-16T05:52:37;7.13;;;4.97;;
10957;SDS011;5531;42.570;23.676;2022-10-16T05:55:07;6.60;;;5.00;;
10957;SDS011;5531;42.570;23.676;2022-10-16T05:57:36;7.68;;;6.15;;
10957;SDS011;5531;42.570;23.676;2022-10-16T06:00:09;6.63;;;5.10;;
10957;SDS011;5531;42.570;23.676;2022-10-16T06:02:38;6.10;;;4.72;;
10957;SDS011;5531;42.570;23.676;2022-10-16T06:05:07;5.20;;;4.70;;
10957;SDS011;5531;42.570;23.676;2022-10-16T06:07:37;5.75;;;5.15;;
10957;SDS011;5531;42.570;23.676;2022-10-16T06:10:06;6.43;;;5.10;;
10957;SDS011;5531;42.570;23.676;2022-10-16T06:12:36;5.97;;;5.07;;
10957;SDS011;5531;42.570;23.676;2022-10-16T06:15:08;5.47;;;4.60;;
10957;SDS011;5531;42.570;23.676;2022-10-16T06:17:38;5.95;;;4.78;;
10957;SDS011;5531;42.570;23.676;2022-10-16T06:20:07;5.13;;;4.63;;
10957;SDS011;5531;42.570;23.676;2022-10-16T06:22:37;6.18;;;4.80;;
10957;SDS011;5531;42.570;23.676;2022-10-16T06:25:06;4.93;;;4.22;;
10957;SDS011;5531;42.570;23.676;2022-10-16T06:27:35;4.93;;;4.40;;
10957;SDS011;5531;42.570;23.676;2022-10-16T06:30:10;4.88;;;3.88;;
10957;SDS011;5531;42.570;23.676;2022-10-16T06:32:39;4.57;;;4.18;;
10957;SDS011;5531;42.570;23.676;2022-10-16T06:35:08;4.78;;;4.22;;
10957;SDS011;5531;42.570;23.676;2022-10-16T06:37:37;5.07;;;4.45;;
10957;SDS011;5531;42.570;23.676;2022-10-16T06:40:06;5.50;;;4.20;;
10957;SDS011;5531;42.570;23.676;2022-10-16T06:42:36;4.40;;;3.90;;
10957;SDS011;5531;42.570;23.676;2022-10-16T06:45:05;5.75;;;4.60;;
10957;SDS011;5531;42.570;23.676;2022-10-16T06:47:38;4.55;;;4.10;;
10957;SDS011;5531;42.570;23.676;2022-10-16T06:50:07;4.63;;;3.70;;
10957;SDS011;5531;42.570;23.676;2022-10-16T06:52:36;4.28;;;3.63;;
10957;SDS011;5531;42.570;23.676;2022-10-16T06:55:06;4.07;;;3.63;;
10957;SDS011;5531;42.570;23.676;2022-10-16T06:57:35;4.88;;;4.07;;
10957;SDS011;5531;42.570;23.676;2022-10-16T07:00:05;4.10;;;3.60;;
10957;SDS011;5531;42.570;23.676;2022-10-16T07:02:35;5.13;;;4.35;;
10957;SDS011;5531;42.570;23.676;2022-10-16T07:05:07;4.40;;;3.83;;
10957;SDS011;5531;42.570;23.676;2022-10-16T07:07:36;4.60;;;4.00;;
10957;SDS011;5531;42.570;23.676;2022-10-16T07:10:05;4.57;;;3.85;;
10957;SDS011;5531;42.570;23.676;2022-10-16T07:12:35;6.43;;;4.25;;
10957;SDS011;5531;42.570;23.676;2022-10-16T07:15:04;4.30;;;3.53;;
10957;SDS011;5531;42.570;23.676;2022-10-16T07:17:34;4.43;;;3.63;;
10957;SDS011;5531;42.570;23.676;2022-10-16T07:20:07;5.82;;;3.83;;
10957;SDS011;5531;42.570;23.676;2022-10-16T07:22:37;5.30;;;3.90;;
10957;SDS011;5531;42.570;23.676;2022-10-16T07:25:06;4.60;;;3.70;;
10957;SDS011;5531;42.570;23.676;2022-10-16T07:27:36;4.50;;;3.70;;
10957;SDS011;5531;42.570;23.676;2022-10-16T07:30:06;5.65;;;3.90;;
10957;SDS011;5531;42.570;23.676;2022-10-16T07:32:36;5.25;;;3.85;;
10957;SDS011;5531;42.570;23.676;2022-10-16T07:35:08;4.82;;;3.70;;
10957;SDS011;5531;42.570;23.676;2022-10-16T07:37:37;4.28;;;3.50;;
10957;SDS011;5531;42.570;23.676;2022-10-16T07:40:07;3.85;;;3.50;;
10957;SDS011;5531;42.570;23.676;2022-10-16T07:42:37;4.38;;;3.80;;
10957;SDS011;5531;42.570;23.676;2022-10-16T07:45:06;3.50;;;3.20;;
10957;SDS011;5531;42.570;23.676;2022-10-16T07:47:36;4.45;;;3.45;;
10957;SDS011;5531;42.570;23.676;2022-10-16T07:50:08;4.45;;;3.20;;
10957;SDS011;5531;42.570;23.676;2022-10-16T07:52:37;3.60;;;3.17;;
10957;SDS011;5531;42.570;23.676;2022-10-16T07:55:06;4.03;;;3.47;;
10957;SDS011;5531;42.570;23.676;2022-10-16T07:57:36;3.70;;;3.08;;
10957;SDS011;5531;42.570;23.676;2022-10-16T08:00:06;3.35;;;3.05;;
10957;SDS011;5531;42.570;23.676;2022-10-16T08:02:38;4.10;;;3.22;;
10957;SDS011;5531;42.570;23.676;2022-10-16T08:05:10;3.65;;;3.05;;
10957;SDS011;5531;42.570;23.676;2022-10-16T08:07:39;4.30;;;2.72;;
10957;SDS011;5531;42.570;23.676;2022-10-16T08:10:10;3.25;;;2.95;;
10957;SDS011;5531;42.570;23.676;2022-10-16T08:12:45;4.68;;;3.17;;
10957;SDS011;5531;42.570;23.676;2022-10-16T08:15:14;3.20;;;2.85;;
10957;SDS011;5531;42.570;23.676;2022-10-16T08:17:43;3.78;;;2.95;;
10957;SDS011;5531;42.570;23.676;2022-10-16T08:20:15;2.78;;;2.58;;
10957;SDS011;5531;42.570;23.676;2022-10-16T08:22:44;2.95;;;2.65;;
10957;SDS011;5531;42.570;23.676;2022-10-16T08:25:13;3.53;;;2.50;;
10957;SDS011;5531;42.570;23.676;2022-10-16T08:27:42;3.50;;;2.67;;
10957;SDS011;5531;42.570;23.676;2022-10-16T08:30:11;3.33;;;2.97;;
10957;SDS011;5531;42.570;23.676;2022-10-16T08:32:40;3.97;;;3.15;;
10957;SDS011;5531;42.570;23.676;2022-10-16T08:35:10;4.35;;;2.85;;
10957;SDS011;5531;42.570;23.676;2022-10-16T08:37:42;3.50;;;3.17;;
10957;SDS011;5531;42.570;23.676;2022-10-16T08:40:15;3.40;;;2.90;;
10957;SDS011;5531;42.570;23.676;2022-10-16T08:42:50;3.10;;;2.67;;
10957;SDS011;5531;42.570;23.676;2022-10-16T08:45:34;3.70;;;2.95;;
10957;SDS011;5531;42.570;23.676;2022-10-16T08:48:15;3.35;;;2.70;;
10957;SDS011;5531;42.570;23.676;2022-10-16T08:50:49;3.20;;;2.90;;
10957;SDS011;5531;42.570;23.676;2022-10-16T08:53:24;3.15;;;2.85;;
10957;SDS011;5531;42.570;23.676;2022-10-16T08:55:57;3.28;;;2.97;;
10957;SDS011;5531;42.570;23.676;2022-10-16T08:58:27;3.50;;;3.10;;
10957;SDS011;5531;42.570;23.676;2022-10-16T09:00:58;4.72;;;3.20;;
10957;SDS011;5531;42.570;23.676;2022-10-16T09:03:32;3.30;;;3.00;;
10957;SDS011;5531;42.570;23.676;2022-10-16T09:06:25;4.22;;;3.20;;
10957;SDS011;5531;42.570;23.676;2022-10-16T09:12:08;3.85;;;3.10;;
10957;SDS011;5531;42.570;23.676;2022-10-16T09:14:44;3.40;;;3.10;;
10957;SDS011;5531;42.570;23.676;2022-10-16T09:17:30;3.20;;;2.90;;
10957;SDS011;5531;42.570;23.676;2022-10-16T09:20:22;3.22;;;2.78;;
10957;SDS011;5531;42.570;23.676;2022-10-16T09:23:07;3.20;;;2.90;;
10957;SDS011;5531;42.570;23.676;2022-10-16T09:25:44;3.05;;;2.75;;
10957;SDS011;5531;42.570;23.676;2022-10-16T09:28:16;3.58;;;2.85;;
10957;SDS011;5531;42.570;23.676;2022-10-16T09:30:46;4.63;;;2.92;;
10957;SDS011;5531;42.570;23.676;2022-10-16T09:33:17;3.25;;;2.95;;
10957;SDS011;5531;42.570;23.676;2022-10-16T09:35:49;3.22;;;2.90;;
10957;SDS011;5531;42.570;23.676;2022-10-16T09:38:24;3.15;;;2.85;;
10957;SDS011;5531;42.570;23.676;2022-10-16T09:40:58;3.00;;;2.80;;
10957;SDS011;5531;42.570;23.676;2022-10-16T09:43:30;2.75;;;2.55;;
10957;SDS011;5531;42.570;23.676;2022-10-16T09:46:06;3.00;;;2.70;;
10957;SDS011;5531;42.570;23.676;2022-10-16T09:48:37;3.10;;;2.75;;
10957;SDS011;5531;42.570;23.676;2022-10-16T09:51:16;3.30;;;3.00;;
10957;SDS011;5531;42.570;23.676;2022-10-16T09:53:47;2.65;;;2.40;;
10957;SDS011;5531;42.570;23.676;2022-10-16T09:56:26;3.10;;;2.80;;
10957;SDS011;5531;42.570;23.676;2022-10-16T09:58:58;2.67;;;2.47;;
10957;SDS011;5531;42.570;23.676;2022-10-16T10:01:30;4.10;;;2.80;;
10957;SDS011;5531;42.570;23.676;2022-10-16T10:04:04;4.28;;;3.33;;
10957;SDS011;5531;42.570;23.676;2022-10-16T10:06:34;11.35;;;5.47;;
10957;SDS011;5531;42.570;23.676;2022-10-16T10:09:06;8.32;;;5.55;;
10957;SDS011;5531;42.570;23.676;2022-10-16T10:11:52;3.25;;;2.42;;
10957;SDS011;5531;42.570;23.676;2022-10-16T10:14:23;2.95;;;2.65;;
10957;SDS011;5531;42.570;23.676;2022-10-16T10:17:02;9.77;;;6.85;;
10957;SDS011;5531;42.570;23.676;2022-10-16T10:19:39;3.70;;;3.15;;
10957;SDS011;5531;42.570;23.676;2022-10-16T10:22:25;3.08;;;2.72;;
10957;SDS011;5531;42.570;23.676;2022-10-16T10:24:59;3.38;;;3.00;;
10957;SDS011;5531;42.570;23.676;2022-10-16T10:27:47;3.45;;;2.72;;
10957;SDS011;5531;42.570;23.676;2022-10-16T10:30:29;3.85;;;3.10;;
10957;SDS011;5531;42.570;23.676;2022-10-16T10:33:10;4.80;;;3.05;;
10957;SDS011;5531;42.570;23.676;2022-10-16T10:35:49;3.15;;;2.75;;
10957;SDS011;5531;42.570;23.676;2022-10-16T10:38:27;3.60;;;2.78;;
10957;SDS011;5531;42.570;23.676;2022-10-16T10:41:11;3.70;;;3.00;;
10957;SDS011;5531;42.570;23.676;2022-10-16T10:44:00;2.97;;;2.75;;
10957;SDS011;5531;42.570;23.676;2022-10-16T10:46:35;3.55;;;2.88;;
10957;SDS011;5531;42.570;23.676;2022-10-16T10:49:13;3.17;;;2.88;;
10957;SDS011;5531;42.570;23.676;2022-10-16T10:51:57;2.85;;;2.55;;
10957;SDS011;5531;42.570;23.676;2022-10-16T10:54:37;4.18;;;2.90;;
10957;SDS011;5531;42.570;23.676;2022-10-16T10:57:19;3.22;;;2.92;;
10957;SDS011;5531;42.570;23.676;2022-10-16T11:00:05;3.00;;;2.80;;
10957;SDS011;5531;42.570;23.676;2022-10-16T11:02:46;2.90;;;2.60;;
10957;SDS011;5531;42.570;23.676;2022-10-16T11:05:27;3.80;;;2.50;;
10957;SDS011;5531;42.570;23.676;2022-10-16T11:08:07;3.85;;;2.45;;
10957;SDS011;5531;42.570;23.676;2022-10-16T11:10:44;2.97;;;2.47;;
10957;SDS011;5531;42.570;23.676;2022-10-16T11:13:20;3.38;;;2.80;;
10957;SDS011;5531;42.570;23.676;2022-10-16T11:16:01;2.60;;;2.38;;
10957;SDS011;5531;42.570;23.676;2022-10-16T11:18:39;2.95;;;2.60;;
10957;SDS011;5531;42.570;23.676;2022-10-16T11:21:15;3.08;;;2.28;;
10957;SDS011;5531;42.570;23.676;2022-10-16T11:23:50;2.72;;;2.53;;
10957;SDS011;5531;42.570;23.676;2022-10-16T11:26:26;2.17;;;1.98;;
10957;SDS011;5531;42.570;23.676;2022-10-16T11:28:59;3.15;;;2.25;;
10957;SDS011;5531;42.570;23.676;2022-10-16T11:31:36;2.35;;;2.08;;
10957;SDS011;5531;42.570;23.676;2022-10-16T11:34:09;3.28;;;2.00;;
10957;SDS011;5531;42.570;23.676;2022-10-16T11:36:48;2.20;;;2.00;;
10957;SDS011;5531;42.570;23.676;2022-10-16T11:39:22;2.20;;;2.00;;
10957;SDS011;5531;42.570;23.676;2022-10-16T11:41:55;2.42;;;2.00;;
10957;SDS011;5531;42.570;23.676;2022-10-16T11:44:38;2.20;;;1.98;;
10957;SDS011;5531;42.570;23.676;2022-10-16T11:47:23;2.22;;;2.00;;
10957;SDS011;5531;42.570;23.676;2022-10-16T11:49:57;1.85;;;1.75;;
10957;SDS011;5531;42.570;23.676;2022-10-16T11:52:30;2.88;;;2.00;;
10957;SDS011;5531;42.570;23.676;2022-10-16T11:55:06;2.17;;;1.98;;
10957;SDS011;5531;42.570;23.676;2022-10-16T11:57:44;2.00;;;1.80;;
10957;SDS011;5531;42.570;23.676;2022-10-16T12:00:20;3.47;;;1.95;;
10957;SDS011;5531;42.570;23.676;2022-10-16T12:02:59;2.22;;;2.03;;
10957;SDS011;5531;42.570;23.676;2022-10-16T12:05:40;2.08;;;1.80;;
10957;SDS011;5531;42.570;23.676;2022-10-16T12:08:21;2.03;;;1.83;;
10957;SDS011;5531;42.570;23.676;2022-10-16T12:10:50;2.35;;;1.98;;
10957;SDS011;5531;42.570;23.676;2022-10-16T12:13:30;2.15;;;1.80;;
10957;SDS011;5531;42.570;23.676;2022-10-16T12:16:07;2.15;;;1.60;;
10957;SDS011;5531;42.570;23.676;2022-10-16T12:19:02;1.88;;;1.70;;
10957;SDS011;5531;42.570;23.676;2022-10-16T12:21:38;2.20;;;1.55;;
10957;SDS011;5531;42.570;23.676;2022-10-16T12:24:18;2.45;;;1.90;;
10957;SDS011;5531;42.570;23.676;2022-10-16T12:26:50;1.80;;;1.70;;
10957;SDS011;5531;42.570;23.676;2022-10-16T12:29:23;1.90;;;1.63;;
10957;SDS011;5531;42.570;23.676;2022-10-16T12:32:00;2.10;;;1.90;;
10957;SDS011;5531;42.570;23.676;2022-10-16T12:34:40;2.25;;;2.05;;
10957;SDS011;5531;42.570;23.676;2022-10-16T12:37:13;2.35;;;1.90;;
10957;SDS011;5531;42.570;23.676;2022-10-16T12:39:48;2.20;;;1.75;;
10957;SDS011;5531;42.570;23.676;2022-10-16T12:42:22;2.00;;;1.90;;
10957;SDS011;5531;42.570;23.676;2022-10-16T12:44:59;2.38;;;1.80;;
10957;SDS011;5531;42.570;23.676;2022-10-16T12:47:36;1.90;;;1.63;;
10957;SDS011;5531;42.570;23.676;2022-10-16T12:50:28;2.07;;;1.80;;
10957;SDS011;5531;42.570;23.676;2022-10-16T12:53:00;2.17;;;1.65;;
10957;SDS011;5531;42.570;23.676;2022-10-16T12:55:32;2.70;;;2.10;;
10957;SDS011;5531;42.570;23.676;2022-10-16T12:58:18;2.58;;;1.70;;
10957;SDS011;5531;42.570;23.676;2022-10-16T13:01:03;1.98;;;1.77;;
10957;SDS011;5531;42.570;23.676;2022-10-16T13:03:53;2.17;;;1.88;;
10957;SDS011;5531;42.570;23.676;2022-10-16T13:06:44;2.50;;;1.88;;
10957;SDS011;5531;42.570;23.676;2022-10-16T13:09:25;2.53;;;1.90;;
10957;SDS011;5531;42.570;23.676;2022-10-16T13:12:11;2.08;;;1.88;;
10957;SDS011;5531;42.570;23.676;2022-10-16T13:15:01;2.38;;;1.55;;
10957;SDS011;5531;42.570;23.676;2022-10-16T13:17:45;2.58;;;1.98;;
10957;SDS011;5531;42.570;23.676;2022-10-16T13:20:23;1.70;;;1.60;;
10957;SDS011;5531;42.570;23.676;2022-10-16T13:23:03;2.00;;;1.80;;
10957;SDS011;5531;42.570;23.676;2022-10-16T13:25:45;2.55;;;1.77;;
10957;SDS011;5531;42.570;23.676;2022-10-16T13:28:27;2.92;;;1.70;;
10957;SDS011;5531;42.570;23.676;2022-10-16T13:30:59;2.22;;;1.92;;
10957;SDS011;5531;42.570;23.676;2022-10-16T13:33:31;2.22;;;1.70;;
10957;SDS011;5531;42.570;23.676;2022-10-16T13:36:01;2.13;;;1.80;;
10957;SDS011;5531;42.570;23.676;2022-10-16T13:38:35;1.60;;;1.50;;
10957;SDS011;5531;42.570;23.676;2022-10-16T13:41:05;2.53;;;1.77;;
10957;SDS011;5531;42.570;23.676;2022-10-16T13:43:42;1.52;;;1.42;;
10957;SDS011;5531;42.570;23.676;2022-10-16T13:46:14;1.80;;;1.70;;
10957;SDS011;5531;42.570;23.676;2022-10-16T13:48:55;2.00;;;1.88;;
10957;SDS011;5531;42.570;23.676;2022-10-16T13:51:25;1.67;;;1.58;;
10957;SDS011;5531;42.570;23.676;2022-10-16T13:53:58;2.00;;;1.77;;
10957;SDS011;5531;42.570;23.676;2022-10-16T13:56:29;1.98;;;1.80;;
10957;SDS011;5531;42.570;23.676;2022-10-16T13:59:00;2.28;;;1.60;;
10957;SDS011;5531;42.570;23.676;2022-10-16T14:01:31;1.90;;;1.50;;
10957;SDS011;5531;42.570;23.676;2022-10-16T14:04:03;2.25;;;1.88;;
10957;SDS011;5531;42.570;23.676;2022-10-16T14:06:34;2.00;;;1.73;;
10957;SDS011;5531;42.570;23.676;2022-10-16T14:09:08;2.45;;;1.65;;
10957;SDS011;5531;42.570;23.676;2022-10-16T14:11:44;1.80;;;1.70;;
10957;SDS011;5531;42.570;23.676;2022-10-16T14:14:16;1.90;;;1.80;;
10957;SDS011;5531;42.570;23.676;2022-10-16T14:16:47;1.90;;;1.70;;
10957;SDS011;5531;42.570;23.676;2022-10-16T14:19:18;2.30;;;1.70;;
10957;SDS011;5531;42.570;23.676;2022-10-16T14:21:51;1.83;;;1.60;;
10957;SDS011;5531;42.570;23.676;2022-10-16T14:24:31;1.90;;;1.70;;
10957;SDS011;5531;42.570;23.676;2022-10-16T14:27:01;1.92;;;1.73;;
10957;SDS011;5531;42.570;23.676;2022-10-16T14:30:01;2.45;;;1.80;;
10957;SDS011;5531;42.570;23.676;2022-10-16T14:32:42;1.92;;;1.73;;
10957;SDS011;5531;42.570;23.676;2022-10-16T14:35:24;1.67;;;1.58;;
10957;SDS011;5531;42.570;23.676;2022-10-16T14:37:55;2.17;;;1.63;;
10957;SDS011;5531;42.570;23.676;2022-10-16T14:40:29;2.10;;;1.90;;
10957;SDS011;5531;42.570;23.676;2022-10-16T14:43:00;1.70;;;1.60;;
10957;SDS011;5531;42.570;23.676;2022-10-16T14:45:30;2.63;;;1.80;;
10957;SDS011;5531;42.570;23.676;2022-10-16T14:48:02;1.90;;;1.70;;
10957;SDS011;5531;42.570;23.676;2022-10-16T14:50:34;2.15;;;1.80;;
10957;SDS011;5531;42.570;23.676;2022-10-16T14:53:07;2.85;;;1.63;;
10957;SDS011;5531;42.570;23.676;2022-10-16T14:55:42;3.15;;;1.70;;
10957;SDS011;5531;42.570;23.676;2022-10-16T14:58:13;1.90;;;1.70;;
10957;SDS011;5531;42.570;23.676;2022-10-16T15:00:44;1.83;;;1.60;;
10957;SDS011;5531;42.570;23.676;2022-10-16T15:03:14;3.42;;;1.75;;
10957;SDS011;5531;42.570;23.676;2022-10-16T15:05:43;2.13;;;1.90;;
10957;SDS011;5531;42.570;23.676;2022-10-16T15:08:12;2.28;;;1.90;;
10957;SDS011;5531;42.570;23.676;2022-10-16T15:10:44;1.95;;;1.80;;
10957;SDS011;5531;42.570;23.676;2022-10-16T15:13:13;2.58;;;1.70;;
10957;SDS011;5531;42.570;23.676;2022-10-16T15:15:43;2.13;;;1.90;;
10957;SDS011;5531;42.570;23.676;2022-10-16T15:18:14;2.65;;;1.80;;
10957;SDS011;5531;42.570;23.676;2022-10-16T15:20:47;2.20;;;1.80;;
10957;SDS011;5531;42.570;23.676;2022-10-16T15:23:17;2.10;;;1.77;;
10957;SDS011;5531;42.570;23.676;2022-10-16T15:25:51;1.60;;;1.50;;
10957;SDS011;5531;42.570;23.676;2022-10-16T15:28:21;1.75;;;1.65;;
10957;SDS011;5531;42.570;23.676;2022-10-16T15:30:52;2.08;;;1.60;;